sensor_id;sensor_type;location;lat;lon;timestamp;pressure;altitude;pressure_sealevel;temperature;humidity
84878;BME280;75140;47.754;8.840;2024-01-10T00:01:07;97416.41;;;-3.79;86.08
84878;BME280;75140;47.754;8.840;2024-01-10T00:03:32;97427.06;;;-3.68;86.07
84878;BME280;75140;47.754;8.840;2024-01-10T00:05:58;97421.97;;;-3.54;86.54
84878;BME280;75140;47.754;8.840;2024-01-10T00:08:23;97425.03;;;-3.79;86.24
84878;BME280;75140;47.754;8.840;2024-01-10T00:10:53;97412.59;;;-3.89;85.24
84878;BME280;75140;47.754;8.840;2024-01-10T00:13:20;97418.31;;;-3.83;86.93
84878;BME280;75140;47.754;8.840;2024-01-10T00:15:46;97425.53;;;-3.72;86.30
84878;BME280;75140;47.754;8.840;2024-01-10T00:18:12;97421.50;;;-3.78;86.42
84878;BME280;75140;47.754;8.840;2024-01-10T00:20:37;97411.97;;;-3.77;86.89
84878;BME280;75140;47.754;8.840;2024-01-10T00:23:02;97408.19;;;-3.87;85.96
84878;BME280;75140;47.754;8.840;2024-01-10T00:25:28;97417.94;;;-3.75;85.59
84878;BME280;75140;47.754;8.840;2024-01-10T00:27:54;97420.28;;;-3.71;87.10
84878;BME280;75140;47.754;8.840;2024-01-10T00:30:21;97422.81;;;-3.86;86.52
84878;BME280;75140;47.754;8.840;2024-01-10T00:32:46;97417.50;;;-3.83;87.66
84878;BME280;75140;47.754;8.840;2024-01-10T00:35:12;97416.09;;;-3.73;87.43
84878;BME280;75140;47.754;8.840;2024-01-10T00:37:37;97410.28;;;-3.61;87.59
84878;BME280;75140;47.754;8.840;2024-01-10T00:40:03;97421.25;;;-3.56;87.81
84878;BME280;75140;47.754;8.840;2024-01-10T00:42:28;97414.28;;;-3.55;87.26
84878;BME280;75140;47.754;8.840;2024-01-10T00:44:54;97414.78;;;-3.64;87.00
84878;BME280;75140;47.754;8.840;2024-01-10T00:47:19;97408.59;;;-3.62;86.19
84878;BME280;75140;47.754;8.840;2024-01-10T00:49:44;97409.41;;;-3.94;86.80
84878;BME280;75140;47.754;8.840;2024-01-10T00:52:09;97409.56;;;-3.80;87.19
84878;BME280;75140;47.754;8.840;2024-01-10T00:54:35;97407.13;;;-3.68;87.30
84878;BME280;75140;47.754;8.840;2024-01-10T00:57:00;97410.16;;;-3.75;87.06
84878;BME280;75140;47.754;8.840;2024-01-10T00:59:25;97408.31;;;-3.73;87.39
84878;BME280;75140;47.754;8.840;2024-01-10T01:01:51;97410.84;;;-3.72;87.72
84878;BME280;75140;47.754;8.840;2024-01-10T01:04:17;97408.53;;;-3.78;87.66
84878;BME280;75140;47.754;8.840;2024-01-10T01:06:42;97406.63;;;-3.74;87.88
84878;BME280;75140;47.754;8.840;2024-01-10T01:09:07;97413.66;;;-3.76;87.62
84878;BME280;75140;47.754;8.840;2024-01-10T01:11:33;97410.41;;;-3.64;87.22
84878;BME280;75140;47.754;8.840;2024-01-10T01:13:58;97404.25;;;-3.61;87.02
84878;BME280;75140;47.754;8.840;2024-01-10T01:16:23;97414.38;;;-3.57;88.11
84878;BME280;75140;47.754;8.840;2024-01-10T01:18:49;97412.31;;;-3.68;87.68
84878;BME280;75140;47.754;8.840;2024-01-10T01:21:14;97412.03;;;-3.61;88.33
84878;BME280;75140;47.754;8.840;2024-01-10T01:23:39;97421.13;;;-3.70;88.08
84878;BME280;75140;47.754;8.840;2024-01-10T01:26:05;97415.16;;;-3.72;88.34
84878;BME280;75140;47.754;8.840;2024-01-10T01:28:30;97415.16;;;-3.72;88.39
84878;BME280;75140;47.754;8.840;2024-01-10T01:30:56;97413.19;;;-3.67;88.50
84878;BME280;75140;47.754;8.840;2024-01-10T01:33:22;97418.34;;;-3.67;89.14
84878;BME280;75140;47.754;8.840;2024-01-10T01:35:47;97414.63;;;-3.61;88.53
84878;BME280;75140;47.754;8.840;2024-01-10T01:38:12;97416.28;;;-3.60;88.13
84878;BME280;75140;47.754;8.840;2024-01-10T01:40:38;97416.78;;;-3.54;88.98
84878;BME280;75140;47.754;8.840;2024-01-10T01:43:18;97410.88;;;-3.56;87.99
84878;BME280;75140;47.754;8.840;2024-01-10T01:45:44;97412.53;;;-3.55;88.07
84878;BME280;75140;47.754;8.840;2024-01-10T01:48:09;97411.56;;;-3.52;87.96
84878;BME280;75140;47.754;8.840;2024-01-10T01:50:35;97412.44;;;-3.53;88.00
84878;BME280;75140;47.754;8.840;2024-01-10T01:53:00;97405.81;;;-3.59;87.18
84878;BME280;75140;47.754;8.840;2024-01-10T01:55:26;97408.66;;;-3.63;88.03
84878;BME280;75140;47.754;8.840;2024-01-10T01:57:51;97402.34;;;-3.58;88.41
84878;BME280;75140;47.754;8.840;2024-01-10T02:00:16;97394.88;;;-3.48;87.99
84878;BME280;75140;47.754;8.840;2024-01-10T02:02:43;97403.00;;;-3.54;87.94
84878;BME280;75140;47.754;8.840;2024-01-10T02:05:09;97405.50;;;-3.53;88.20
84878;BME280;75140;47.754;8.840;2024-01-10T02:07:34;97407.50;;;-3.58;86.68
84878;BME280;75140;47.754;8.840;2024-01-10T02:10:00;97405.41;;;-3.67;88.41
84878;BME280;75140;47.754;8.840;2024-01-10T02:12:25;97407.34;;;-3.55;88.42
84878;BME280;75140;47.754;8.840;2024-01-10T02:14:51;97404.63;;;-3.69;87.59
84878;BME280;75140;47.754;8.840;2024-01-10T02:17:17;97401.22;;;-3.70;86.83
84878;BME280;75140;47.754;8.840;2024-01-10T02:19:42;97406.66;;;-3.58;87.21
84878;BME280;75140;47.754;8.840;2024-01-10T02:22:07;97404.84;;;-3.56;87.70
84878;BME280;75140;47.754;8.840;2024-01-10T02:24:33;97405.09;;;-3.61;86.75
84878;BME280;75140;47.754;8.840;2024-01-10T02:26:58;97388.91;;;-3.66;87.25
84878;BME280;75140;47.754;8.840;2024-01-10T02:29:23;97394.28;;;-3.53;88.29
84878;BME280;75140;47.754;8.840;2024-01-10T02:31:49;97395.63;;;-3.62;88.06
84878;BME280;75140;47.754;8.840;2024-01-10T02:34:14;97396.88;;;-3.86;87.62
84878;BME280;75140;47.754;8.840;2024-01-10T02:36:40;97403.31;;;-3.60;88.67
84878;BME280;75140;47.754;8.840;2024-01-10T02:39:05;97399.31;;;-3.50;88.18
84878;BME280;75140;47.754;8.840;2024-01-10T02:41:31;97394.41;;;-3.39;87.17
84878;BME280;75140;47.754;8.840;2024-01-10T02:43:57;97395.41;;;-3.26;87.67
84878;BME280;75140;47.754;8.840;2024-01-10T02:46:24;97390.56;;;-3.32;88.29
84878;BME280;75140;47.754;8.840;2024-01-10T02:48:53;97395.31;;;-3.40;87.51
84878;BME280;75140;47.754;8.840;2024-01-10T02:51:18;97390.13;;;-3.40;88.49
84878;BME280;75140;47.754;8.840;2024-01-10T02:53:45;97381.19;;;-3.35;87.39
84878;BME280;75140;47.754;8.840;2024-01-10T02:56:10;97377.66;;;-3.49;86.71
84878;BME280;75140;47.754;8.840;2024-01-10T02:58:35;97382.75;;;-3.48;86.82
84878;BME280;75140;47.754;8.840;2024-01-10T03:01:01;97374.03;;;-3.47;87.23
84878;BME280;75140;47.754;8.840;2024-01-10T03:03:26;97376.13;;;-3.53;87.53
84878;BME280;75140;47.754;8.840;2024-01-10T03:05:52;97383.03;;;-3.52;88.17
84878;BME280;75140;47.754;8.840;2024-01-10T03:08:17;97381.06;;;-3.49;88.81
84878;BME280;75140;47.754;8.840;2024-01-10T03:10:42;97385.53;;;-3.51;87.74
84878;BME280;75140;47.754;8.840;2024-01-10T03:13:08;97373.38;;;-3.50;88.04
84878;BME280;75140;47.754;8.840;2024-01-10T03:15:33;97382.94;;;-3.35;87.63
84878;BME280;75140;47.754;8.840;2024-01-10T03:17:58;97387.59;;;-3.42;88.06
84878;BME280;75140;47.754;8.840;2024-01-10T03:20:24;97386.44;;;-3.52;86.89
84878;BME280;75140;47.754;8.840;2024-01-10T03:22:49;97377.91;;;-3.38;88.22
84878;BME280;75140;47.754;8.840;2024-01-10T03:25:14;97371.91;;;-3.39;87.95
84878;BME280;75140;47.754;8.840;2024-01-10T03:27:40;97385.47;;;-3.34;88.11
84878;BME280;75140;47.754;8.840;2024-01-10T03:30:06;97384.19;;;-3.58;87.71
84878;BME280;75140;47.754;8.840;2024-01-10T03:32:31;97384.94;;;-3.40;87.78
84878;BME280;75140;47.754;8.840;2024-01-10T03:34:57;97384.88;;;-3.39;87.73
84878;BME280;75140;47.754;8.840;2024-01-10T03:37:22;97376.34;;;-3.41;87.31
84878;BME280;75140;47.754;8.840;2024-01-10T03:39:48;97376.56;;;-3.45;86.86
84878;BME280;75140;47.754;8.840;2024-01-10T03:42:13;97384.34;;;-3.45;87.10
84878;BME280;75140;47.754;8.840;2024-01-10T03:44:40;97390.75;;;-3.35;87.33
84878;BME280;75140;47.754;8.840;2024-01-10T03:47:06;97389.53;;;-3.30;87.45
84878;BME280;75140;47.754;8.840;2024-01-10T03:49:31;97386.72;;;-3.25;87.16
84878;BME280;75140;47.754;8.840;2024-01-10T03:51:57;97386.47;;;-3.21;87.55
84878;BME280;75140;47.754;8.840;2024-01-10T03:54:22;97383.59;;;-3.32;87.34
84878;BME280;75140;47.754;8.840;2024-01-10T03:56:47;97385.59;;;-3.37;86.86
84878;BME280;75140;47.754;8.840;2024-01-10T03:59:13;97396.06;;;-3.38;87.09
84878;BME280;75140;47.754;8.840;2024-01-10T04:01:38;97389.28;;;-3.56;87.79
84878;BME280;75140;47.754;8.840;2024-01-10T04:04:04;97392.28;;;-3.48;87.93
84878;BME280;75140;47.754;8.840;2024-01-10T04:06:30;97395.72;;;-3.48;87.47
84878;BME280;75140;47.754;8.840;2024-01-10T04:08:55;97392.97;;;-3.45;87.37
84878;BME280;75140;47.754;8.840;2024-01-10T04:11:20;97394.72;;;-3.45;88.09
84878;BME280;75140;47.754;8.840;2024-01-10T04:13:46;97379.50;;;-3.51;87.84
84878;BME280;75140;47.754;8.840;2024-01-10T04:16:11;97389.03;;;-3.52;87.27
84878;BME280;75140;47.754;8.840;2024-01-10T04:18:37;97385.09;;;-3.43;88.47
84878;BME280;75140;47.754;8.840;2024-01-10T04:21:02;97392.22;;;-3.47;87.47
84878;BME280;75140;47.754;8.840;2024-01-10T04:23:28;97388.13;;;-3.51;87.99
84878;BME280;75140;47.754;8.840;2024-01-10T04:25:53;97391.97;;;-3.42;88.00
84878;BME280;75140;47.754;8.840;2024-01-10T04:28:19;97393.97;;;-3.32;87.02
84878;BME280;75140;47.754;8.840;2024-01-10T04:30:44;97391.81;;;-3.39;88.54
84878;BME280;75140;47.754;8.840;2024-01-10T04:33:10;97396.81;;;-3.36;87.01
84878;BME280;75140;47.754;8.840;2024-01-10T04:35:35;97395.16;;;-3.37;87.41
84878;BME280;75140;47.754;8.840;2024-01-10T04:38:00;97388.97;;;-3.35;87.29
84878;BME280;75140;47.754;8.840;2024-01-10T04:40:26;97384.63;;;-3.34;87.95
84878;BME280;75140;47.754;8.840;2024-01-10T04:42:51;97383.59;;;-3.32;87.32
84878;BME280;75140;47.754;8.840;2024-01-10T04:45:17;97380.00;;;-3.29;87.29
84878;BME280;75140;47.754;8.840;2024-01-10T04:47:42;97393.06;;;-3.31;88.09
84878;BME280;75140;47.754;8.840;2024-01-10T04:50:10;97383.09;;;-3.23;87.24
84878;BME280;75140;47.754;8.840;2024-01-10T04:52:35;97392.50;;;-3.05;87.68
84878;BME280;75140;47.754;8.840;2024-01-10T04:55:01;97385.63;;;-3.21;86.49
84878;BME280;75140;47.754;8.840;2024-01-10T04:57:28;97395.72;;;-3.48;86.38
84878;BME280;75140;47.754;8.840;2024-01-10T04:59:53;97392.53;;;-3.53;85.76
84878;BME280;75140;47.754;8.840;2024-01-10T05:02:18;97397.25;;;-3.44;86.88
84878;BME280;75140;47.754;8.840;2024-01-10T05:04:44;97395.50;;;-3.28;87.40
84878;BME280;75140;47.754;8.840;2024-01-10T05:07:09;97396.19;;;-3.09;87.53
84878;BME280;75140;47.754;8.840;2024-01-10T05:09:36;97401.19;;;-3.21;86.17
84878;BME280;75140;47.754;8.840;2024-01-10T05:12:02;97404.03;;;-3.26;85.79
84878;BME280;75140;47.754;8.840;2024-01-10T05:14:27;97410.91;;;-3.25;85.76
84878;BME280;75140;47.754;8.840;2024-01-10T05:16:53;97399.00;;;-3.44;86.69
84878;BME280;75140;47.754;8.840;2024-01-10T05:19:18;97411.41;;;-3.34;86.07
84878;BME280;75140;47.754;8.840;2024-01-10T05:21:44;97411.41;;;-3.34;85.61
84878;BME280;75140;47.754;8.840;2024-01-10T05:24:09;97411.91;;;-3.27;86.93
84878;BME280;75140;47.754;8.840;2024-01-10T05:26:35;97414.31;;;-3.40;85.90
84878;BME280;75140;47.754;8.840;2024-01-10T05:29:00;97414.00;;;-3.34;87.77
84878;BME280;75140;47.754;8.840;2024-01-10T05:31:26;97416.75;;;-3.37;86.09
84878;BME280;75140;47.754;8.840;2024-01-10T05:33:51;97428.38;;;-3.28;85.95
84878;BME280;75140;47.754;8.840;2024-01-10T05:36:21;97421.97;;;-3.06;87.51
84878;BME280;75140;47.754;8.840;2024-01-10T05:38:47;97426.47;;;-3.09;86.70
84878;BME280;75140;47.754;8.840;2024-01-10T05:41:13;97422.06;;;-3.07;86.64
84878;BME280;75140;47.754;8.840;2024-01-10T05:43:39;97412.59;;;-3.08;86.62
84878;BME280;75140;47.754;8.840;2024-01-10T05:46:05;97415.25;;;-3.10;86.44
84878;BME280;75140;47.754;8.840;2024-01-10T05:48:30;97414.59;;;-2.98;86.12
84878;BME280;75140;47.754;8.840;2024-01-10T05:50:58;97422.63;;;-2.87;86.15
84878;BME280;75140;47.754;8.840;2024-01-10T05:53:24;97423.47;;;-2.86;87.08
84878;BME280;75140;47.754;8.840;2024-01-10T05:55:50;97420.63;;;-2.97;85.32
84878;BME280;75140;47.754;8.840;2024-01-10T05:58:16;97417.78;;;-3.08;85.76
84878;BME280;75140;47.754;8.840;2024-01-10T06:00:41;97426.00;;;-3.00;85.68
84878;BME280;75140;47.754;8.840;2024-01-10T06:03:07;97410.50;;;-3.02;85.95
84878;BME280;75140;47.754;8.840;2024-01-10T06:05:32;97417.72;;;-2.91;85.96
84878;BME280;75140;47.754;8.840;2024-01-10T06:07:58;97413.50;;;-3.09;85.60
84878;BME280;75140;47.754;8.840;2024-01-10T06:10:23;97414.94;;;-3.04;85.99
84878;BME280;75140;47.754;8.840;2024-01-10T06:12:49;97407.91;;;-3.02;85.00
84878;BME280;75140;47.754;8.840;2024-01-10T06:15:14;97407.63;;;-3.13;85.40
84878;BME280;75140;47.754;8.840;2024-01-10T06:17:40;97406.22;;;-3.03;84.68
84878;BME280;75140;47.754;8.840;2024-01-10T06:20:06;97412.91;;;-2.99;84.10
84878;BME280;75140;47.754;8.840;2024-01-10T06:22:32;97403.88;;;-2.92;84.61
84878;BME280;75140;47.754;8.840;2024-01-10T06:24:58;97412.56;;;-2.93;84.76
84878;BME280;75140;47.754;8.840;2024-01-10T06:27:23;97408.97;;;-2.90;84.50
84878;BME280;75140;47.754;8.840;2024-01-10T06:29:48;97415.13;;;-2.91;84.72
84878;BME280;75140;47.754;8.840;2024-01-10T06:32:14;97412.44;;;-2.90;85.57
84878;BME280;75140;47.754;8.840;2024-01-10T06:34:42;97408.72;;;-3.01;86.02
84878;BME280;75140;47.754;8.840;2024-01-10T06:37:08;97412.25;;;-3.02;85.55
84878;BME280;75140;47.754;8.840;2024-01-10T06:39:34;97425.56;;;-2.93;87.05
84878;BME280;75140;47.754;8.840;2024-01-10T06:41:59;97423.31;;;-2.99;85.70
84878;BME280;75140;47.754;8.840;2024-01-10T06:44:25;97423.13;;;-2.80;87.12
84878;BME280;75140;47.754;8.840;2024-01-10T06:46:53;97428.00;;;-2.90;85.69
84878;BME280;75140;47.754;8.840;2024-01-10T06:49:18;97421.69;;;-3.01;85.06
84878;BME280;75140;47.754;8.840;2024-01-10T06:51:43;97425.31;;;-2.88;86.21
84878;BME280;75140;47.754;8.840;2024-01-10T06:54:09;97426.97;;;-3.03;85.08
84878;BME280;75140;47.754;8.840;2024-01-10T06:56:34;97417.19;;;-2.98;84.96
84878;BME280;75140;47.754;8.840;2024-01-10T06:59:01;97420.22;;;-2.74;85.79
84878;BME280;75140;47.754;8.840;2024-01-10T07:01:27;97416.00;;;-2.77;85.17
84878;BME280;75140;47.754;8.840;2024-01-10T07:03:53;97415.25;;;-2.79;84.85
84878;BME280;75140;47.754;8.840;2024-01-10T07:06:22;97414.00;;;-2.87;84.66
84878;BME280;75140;47.754;8.840;2024-01-10T07:08:48;97425.81;;;-2.82;84.95
84878;BME280;75140;47.754;8.840;2024-01-10T07:11:14;97423.44;;;-2.71;85.74
84878;BME280;75140;47.754;8.840;2024-01-10T07:13:41;97422.75;;;-2.59;85.72
84878;BME280;75140;47.754;8.840;2024-01-10T07:16:07;97423.53;;;-2.72;84.98
84878;BME280;75140;47.754;8.840;2024-01-10T07:18:32;97428.31;;;-2.65;84.55
84878;BME280;75140;47.754;8.840;2024-01-10T07:20:57;97439.28;;;-2.60;85.19
84878;BME280;75140;47.754;8.840;2024-01-10T07:23:23;97433.81;;;-2.55;85.26
84878;BME280;75140;47.754;8.840;2024-01-10T07:25:49;97448.78;;;-2.74;83.77
84878;BME280;75140;47.754;8.840;2024-01-10T07:28:15;97443.91;;;-2.80;84.39
84878;BME280;75140;47.754;8.840;2024-01-10T07:30:40;97447.75;;;-2.72;84.49
84878;BME280;75140;47.754;8.840;2024-01-10T07:33:06;97447.09;;;-2.75;84.05
84878;BME280;75140;47.754;8.840;2024-01-10T07:35:32;97450.53;;;-2.75;84.31
84878;BME280;75140;47.754;8.840;2024-01-10T07:37:58;97453.13;;;-2.75;83.32
84878;BME280;75140;47.754;8.840;2024-01-10T07:40:23;97447.09;;;-2.75;83.53
84878;BME280;75140;47.754;8.840;2024-01-10T07:42:49;97451.09;;;-2.54;83.97
84878;BME280;75140;47.754;8.840;2024-01-10T07:45:14;97459.81;;;-2.55;83.80
84878;BME280;75140;47.754;8.840;2024-01-10T07:47:39;97459.97;;;-2.42;85.54
84878;BME280;75140;47.754;8.840;2024-01-10T07:50:09;97460.66;;;-2.55;83.80
84878;BME280;75140;47.754;8.840;2024-01-10T07:52:35;97462.34;;;-2.69;82.40
84878;BME280;75140;47.754;8.840;2024-01-10T07:55:01;97452.47;;;-2.78;83.76
84878;BME280;75140;47.754;8.840;2024-01-10T07:57:30;97461.31;;;-2.67;83.48
84878;BME280;75140;47.754;8.840;2024-01-10T07:59:55;97467.19;;;-2.63;83.43
84878;BME280;75140;47.754;8.840;2024-01-10T08:02:21;97463.16;;;-2.69;82.77
84878;BME280;75140;47.754;8.840;2024-01-10T08:04:46;97457.13;;;-2.54;84.28
84878;BME280;75140;47.754;8.840;2024-01-10T08:07:11;97452.44;;;-2.63;82.11
84878;BME280;75140;47.754;8.840;2024-01-10T08:09:37;97455.44;;;-2.39;82.99
84878;BME280;75140;47.754;8.840;2024-01-10T08:12:03;97454.56;;;-2.24;82.06
84878;BME280;75140;47.754;8.840;2024-01-10T08:14:29;97466.72;;;-2.24;81.41
84878;BME280;75140;47.754;8.840;2024-01-10T08:16:54;97465.47;;;-2.33;82.17
84878;BME280;75140;47.754;8.840;2024-01-10T08:19:23;97467.13;;;-2.16;82.75
84878;BME280;75140;47.754;8.840;2024-01-10T08:21:49;97464.31;;;-1.98;82.75
84878;BME280;75140;47.754;8.840;2024-01-10T08:24:15;97471.75;;;-1.92;82.63
84878;BME280;75140;47.754;8.840;2024-01-10T08:26:40;97467.88;;;-1.85;81.15
84878;BME280;75140;47.754;8.840;2024-01-10T08:29:06;97468.28;;;-2.06;81.49
84878;BME280;75140;47.754;8.840;2024-01-10T08:31:31;97465.59;;;-2.05;82.40
84878;BME280;75140;47.754;8.840;2024-01-10T08:33:57;97466.91;;;-2.27;81.39
84878;BME280;75140;47.754;8.840;2024-01-10T08:36:22;97472.81;;;-2.10;81.47
84878;BME280;75140;47.754;8.840;2024-01-10T08:38:50;97483.22;;;-2.10;81.77
84878;BME280;75140;47.754;8.840;2024-01-10T08:41:15;97469.84;;;-1.74;81.93
84878;BME280;75140;47.754;8.840;2024-01-10T08:43:41;97466.69;;;-1.79;80.48
84878;BME280;75140;47.754;8.840;2024-01-10T08:46:08;97473.94;;;-1.56;80.13
84878;BME280;75140;47.754;8.840;2024-01-10T08:48:34;97470.25;;;-1.52;79.44
84878;BME280;75140;47.754;8.840;2024-01-10T08:51:00;97470.44;;;-1.55;78.90
84878;BME280;75140;47.754;8.840;2024-01-10T08:53:25;97473.25;;;-1.30;80.41
84878;BME280;75140;47.754;8.840;2024-01-10T08:55:50;97483.38;;;-1.26;79.34
84878;BME280;75140;47.754;8.840;2024-01-10T08:58:16;97473.34;;;-1.32;78.09
84878;BME280;75140;47.754;8.840;2024-01-10T09:00:41;97477.03;;;-1.64;80.06
84878;BME280;75140;47.754;8.840;2024-01-10T09:03:08;97489.50;;;-1.41;80.25
84878;BME280;75140;47.754;8.840;2024-01-10T09:05:34;97489.22;;;-1.08;78.01
84878;BME280;75140;47.754;8.840;2024-01-10T09:07:59;97491.66;;;-0.91;78.02
84878;BME280;75140;47.754;8.840;2024-01-10T09:10:25;97486.53;;;-1.06;76.96
84878;BME280;75140;47.754;8.840;2024-01-10T09:12:54;97494.63;;;-1.25;79.01
84878;BME280;75140;47.754;8.840;2024-01-10T09:15:19;97491.66;;;-1.05;77.87
84878;BME280;75140;47.754;8.840;2024-01-10T09:17:45;97491.09;;;-0.96;78.33
84878;BME280;75140;47.754;8.840;2024-01-10T09:20:11;97488.84;;;-0.88;77.25
84878;BME280;75140;47.754;8.840;2024-01-10T09:22:38;97495.81;;;-0.88;77.64
84878;BME280;75140;47.754;8.840;2024-01-10T09:25:06;97505.75;;;-0.67;79.35
84878;BME280;75140;47.754;8.840;2024-01-10T09:27:33;97501.66;;;-0.71;76.42
84878;BME280;75140;47.754;8.840;2024-01-10T09:30:06;97502.31;;;-0.67;77.55
84878;BME280;75140;47.754;8.840;2024-01-10T09:32:34;97506.22;;;-0.74;76.53
84878;BME280;75140;47.754;8.840;2024-01-10T09:35:00;97500.91;;;-0.59;76.55
84878;BME280;75140;47.754;8.840;2024-01-10T09:37:26;97503.56;;;-0.87;77.12
84878;BME280;75140;47.754;8.840;2024-01-10T09:39:52;97506.97;;;-0.58;77.15
84878;BME280;75140;47.754;8.840;2024-01-10T09:42:18;97509.19;;;-0.66;76.90
84878;BME280;75140;47.754;8.840;2024-01-10T09:44:45;97509.94;;;-0.64;76.44
84878;BME280;75140;47.754;8.840;2024-01-10T09:47:13;97505.88;;;-0.68;76.59
84878;BME280;75140;47.754;8.840;2024-01-10T09:49:40;97513.38;;;-0.64;76.87
84878;BME280;75140;47.754;8.840;2024-01-10T09:52:10;97519.22;;;-0.46;76.69
84878;BME280;75140;47.754;8.840;2024-01-10T09:54:38;97508.69;;;-0.45;75.47
84878;BME280;75140;47.754;8.840;2024-01-10T09:57:04;97509.47;;;-0.57;75.74
84878;BME280;75140;47.754;8.840;2024-01-10T09:59:30;97518.16;;;-0.30;76.55
84878;BME280;75140;47.754;8.840;2024-01-10T10:01:56;97522.94;;;-0.10;75.46
84878;BME280;75140;47.754;8.840;2024-01-10T10:04:27;97525.44;;;-0.35;75.75
84878;BME280;75140;47.754;8.840;2024-01-10T10:07:02;97522.09;;;-0.10;76.37
84878;BME280;75140;47.754;8.840;2024-01-10T10:09:28;97528.28;;;-0.25;76.65
84878;BME280;75140;47.754;8.840;2024-01-10T10:11:55;97523.75;;;-0.36;76.00
84878;BME280;75140;47.754;8.840;2024-01-10T10:14:20;97515.78;;;-0.47;76.17
84878;BME280;75140;47.754;8.840;2024-01-10T10:16:45;97503.53;;;-0.32;76.91
84878;BME280;75140;47.754;8.840;2024-01-10T10:19:11;97517.22;;;-0.29;76.67
84878;BME280;75140;47.754;8.840;2024-01-10T10:21:38;97506.88;;;-0.57;77.92
84878;BME280;75140;47.754;8.840;2024-01-10T10:24:04;97506.66;;;-0.54;78.36
84878;BME280;75140;47.754;8.840;2024-01-10T10:26:32;97513.16;;;-0.47;77.51
84878;BME280;75140;47.754;8.840;2024-01-10T10:28:58;97509.00;;;-0.23;77.83
84878;BME280;75140;47.754;8.840;2024-01-10T10:31:24;97522.09;;;-0.37;78.06
84878;BME280;75140;47.754;8.840;2024-01-10T10:33:50;97512.16;;;-0.18;78.46
84878;BME280;75140;47.754;8.840;2024-01-10T10:36:18;97515.53;;;-0.30;79.77
84878;BME280;75140;47.754;8.840;2024-01-10T10:38:43;97523.91;;;-0.25;79.13
84878;BME280;75140;47.754;8.840;2024-01-10T10:41:09;97518.03;;;-0.14;79.32
84878;BME280;75140;47.754;8.840;2024-01-10T10:43:38;97507.69;;;-0.16;79.32
84878;BME280;75140;47.754;8.840;2024-01-10T10:46:05;97514.91;;;-0.07;79.56
84878;BME280;75140;47.754;8.840;2024-01-10T10:48:42;97524.97;;;-0.01;79.61
84878;BME280;75140;47.754;8.840;2024-01-10T10:51:19;97519.00;;;-0.29;79.21
84878;BME280;75140;47.754;8.840;2024-01-10T10:53:49;97510.31;;;-0.03;80.19
84878;BME280;75140;47.754;8.840;2024-01-10T10:56:15;97505.47;;;0.18;79.32
84878;BME280;75140;47.754;8.840;2024-01-10T10:58:43;97514.25;;;0.17;79.40
84878;BME280;75140;47.754;8.840;2024-01-10T11:01:11;97510.59;;;0.07;79.92
84878;BME280;75140;47.754;8.840;2024-01-10T11:03:40;97513.00;;;-0.17;79.77
84878;BME280;75140;47.754;8.840;2024-01-10T11:06:08;97510.56;;;-0.20;80.60
84878;BME280;75140;47.754;8.840;2024-01-10T11:08:43;97505.53;;;0.03;81.26
84878;BME280;75140;47.754;8.840;2024-01-10T11:17:26;97519.22;;;0.07;80.96
84878;BME280;75140;47.754;8.840;2024-01-10T11:25:21;97514.59;;;0.25;79.81
84878;BME280;75140;47.754;8.840;2024-01-10T11:27:52;97504.72;;;0.03;80.49
84878;BME280;75140;47.754;8.840;2024-01-10T11:30:33;97513.91;;;-0.18;81.40
84878;BME280;75140;47.754;8.840;2024-01-10T11:36:05;97507.88;;;0.21;81.43
84878;BME280;75140;47.754;8.840;2024-01-10T11:38:31;97512.94;;;0.36;81.17
84878;BME280;75140;47.754;8.840;2024-01-10T11:40:56;97500.84;;;0.09;80.52
84878;BME280;75140;47.754;8.840;2024-01-10T11:43:22;97509.44;;;0.11;80.93
84878;BME280;75140;47.754;8.840;2024-01-10T11:45:51;97506.75;;;0.25;82.06
84878;BME280;75140;47.754;8.840;2024-01-10T11:48:25;97497.00;;;0.02;82.80
84878;BME280;75140;47.754;8.840;2024-01-10T11:50:52;97501.31;;;-0.12;82.12
84878;BME280;75140;47.754;8.840;2024-01-10T11:53:56;97496.78;;;-0.22;83.46
84878;BME280;75140;47.754;8.840;2024-01-10T11:56:22;97487.94;;;-0.20;84.14
84878;BME280;75140;47.754;8.840;2024-01-10T11:58:54;97490.19;;;-0.01;82.47
84878;BME280;75140;47.754;8.840;2024-01-10T12:01:21;97490.72;;;0.04;83.89
84878;BME280;75140;47.754;8.840;2024-01-10T12:03:47;97479.53;;;0.29;83.23
84878;BME280;75140;47.754;8.840;2024-01-10T12:06:14;97484.34;;;-0.05;84.14
84878;BME280;75140;47.754;8.840;2024-01-10T12:08:40;97480.06;;;-0.06;83.24
84878;BME280;75140;47.754;8.840;2024-01-10T12:11:06;97485.28;;;-0.06;83.77
84878;BME280;75140;47.754;8.840;2024-01-10T12:13:32;97475.63;;;-0.18;84.34
84878;BME280;75140;47.754;8.840;2024-01-10T12:15:57;97479.88;;;-0.29;85.06
84878;BME280;75140;47.754;8.840;2024-01-10T12:18:23;97488.53;;;-0.29;85.14
84878;BME280;75140;47.754;8.840;2024-01-10T12:20:48;97472.00;;;-0.42;86.12
84878;BME280;75140;47.754;8.840;2024-01-10T12:23:14;97468.03;;;-0.61;86.01
84878;BME280;75140;47.754;8.840;2024-01-10T12:25:39;97477.00;;;-0.39;85.71
84878;BME280;75140;47.754;8.840;2024-01-10T12:28:05;97473.25;;;-0.21;85.02
84878;BME280;75140;47.754;8.840;2024-01-10T12:30:30;97475.22;;;-0.12;85.36
84878;BME280;75140;47.754;8.840;2024-01-10T12:32:59;97470.34;;;-0.43;84.43
84878;BME280;75140;47.754;8.840;2024-01-10T12:35:25;97464.13;;;-0.28;84.63
84878;BME280;75140;47.754;8.840;2024-01-10T12:37:56;97467.47;;;-0.26;85.49
84878;BME280;75140;47.754;8.840;2024-01-10T12:40:22;97462.13;;;0.03;84.62
84878;BME280;75140;47.754;8.840;2024-01-10T12:42:47;97463.25;;;-0.14;83.91
84878;BME280;75140;47.754;8.840;2024-01-10T12:45:25;97463.53;;;-0.19;84.29
84878;BME280;75140;47.754;8.840;2024-01-10T12:47:53;97463.72;;;-0.22;84.98
84878;BME280;75140;47.754;8.840;2024-01-10T12:50:19;97466.38;;;-0.09;84.63
84878;BME280;75140;47.754;8.840;2024-01-10T12:52:44;97467.66;;;-0.02;83.72
84878;BME280;75140;47.754;8.840;2024-01-10T12:55:10;97461.44;;;0.13;83.39
84878;BME280;75140;47.754;8.840;2024-01-10T12:57:36;97458.75;;;-0.12;83.74
84878;BME280;75140;47.754;8.840;2024-01-10T13:00:02;97468.84;;;-0.20;84.17
84878;BME280;75140;47.754;8.840;2024-01-10T13:02:33;97455.25;;;0.02;84.34
84878;BME280;75140;47.754;8.840;2024-01-10T13:05:03;97464.88;;;0.14;83.78
84878;BME280;75140;47.754;8.840;2024-01-10T13:07:28;97459.84;;;0.11;83.07
84878;BME280;75140;47.754;8.840;2024-01-10T13:09:56;97459.53;;;0.03;83.45